Terminal Aerodrome Forecast
Issued by NWS

Home | Current Version | Previous Version | Text Only | Print | Product List | Glossary On
Versions: 1 2 3 4 5 6 7 8 9 10 11 12 13
235
FTUS41 KLWX 262320
TAFMTN
TAF
KMTN 262320Z 2700/2724 28008KT P6SM SKC
     FM271200 00000KT P6SM BKN090
     FM271700 19006KT P6SM OVC070
      AMD NOT SKED 2702/2712=

USA.gov is the U.S. government's official web portal to all federal, state and local government web resources and services.